Time;durP1;ratioP1;P1;durP2;ratioP2;P2;SDS_P1;SDS_P2;PMS_P1;PMS_P2;Temp;Humidity;BMP_temperature;BMP_pressure;BME280_temperature;BME280_humidity;BME280_pressure;Samples;Min_cycle;Max_cycle;Signal;HPM_P1;HPM_P2
2023/04/07 00:01:42;;;;;;;;;;;;;;;;;;5053186;28;891;-71
2023/04/07 00:04:08;;;;;;;;;;;;;;;;;;5034724;28;1223;-71
2023/04/07 00:06:33;;;;;;;;;;;;;;;;;;5018496;28;1121;-71
2023/04/07 00:08:58;;;;;;;;;;;;;;;;;;5052560;28;1909;-71
2023/04/07 00:11:23;;;;;;;;;;;;;;;;;;5035247;28;1300;-71
2023/04/07 00:13:49;;;;;;;;;;;;;;;;;;5054566;28;1276;-71
2023/04/07 00:16:14;;;;;;;;;;;;;;;;;;5072496;28;829;-69
2023/04/07 00:18:39;;;;;;;;;;;;;;;;;;5073510;28;817;-71
2023/04/07 00:21:05;;;;;;;;;;;;;;;;;;5054428;28;1329;-71
2023/04/07 00:23:30;;;;;;;;;;;;;;;;;;5054916;28;849;-71
2023/04/07 00:25:55;;;;;;;;;;;;;;;;;;5054843;28;1306;-71
2023/04/07 00:28:21;;;;;;;;;;;;;;;;;;5054098;28;1929;-71
2023/04/07 00:30:46;;;;;;;;;;;;;;;;;;5072133;28;868;-71
2023/04/07 00:33:11;;;;;;;;;;;;;;;;;;5036793;28;1299;-71
2023/04/07 00:35:37;;;;;;;;;;;;;;;;;;5071176;28;875;-71
2023/04/07 00:38:02;;;;;;;;;;;;;;;;;;5053263;28;900;-71
2023/04/07 00:40:27;;;;;;;;;;;;;;;;;;5070963;28;833;-71
2023/04/07 00:42:52;;;;;;;;;;;;;;;;;;5052984;28;1341;-71
2023/04/07 00:45:18;;;;;;;;;;;;;;;;;;5071809;28;794;-70
2023/04/07 00:47:43;;;;;;;;;;;;;;;;;;5037899;28;1898;-70
2023/04/07 00:50:09;;;;;;;;;;;;;;;;;;5072368;28;875;-70
2023/04/07 00:52:34;;;;;;;;;;;;;;;;;;5054157;28;1223;-70
2023/04/07 00:55:00;;;;;;;;;;;;;;;;;;5072402;28;978;-70
2023/04/07 00:57:26;;;;;;;;;;;;;;;;;;5054991;28;904;-71
2023/04/07 00:59:51;;;;;;;;;;;;;;;;;;5055345;28;821;-67
2023/04/07 01:02:19;;;;;;;;;;;;;;;;;;5040206;28;1334;-67
2023/04/07 01:04:53;;;;;;;;;;;;;;;;;;5073332;28;923;-67
2023/04/07 01:07:23;;;;;;;;;;;;;;;;;;5072230;28;1904;-67
2023/04/07 01:09:54;;;;;;;;;;;;;;;;;;5073141;28;884;-67
2023/04/07 01:12:28;;;;;;;;;;;;;;;;;;5054674;28;1389;-67
2023/04/07 01:14:57;;;;;;;;;;;;;;;;;;5072303;28;1074;-67
2023/04/07 01:17:24;;;;;;;;;;;;;;;;;;5072210;28;899;-67
2023/04/07 01:19:53;;;;;;;;;;;;;;;;;;5072498;28;888;-67
2023/04/07 01:22:22;;;;;;;;;;;;;;;;;;5053779;28;1105;-67
2023/04/07 01:25:06;;;;;;;;;;;;;;;;;;5053859;28;1142;-67
2023/04/07 01:27:31;;;;;;;;;;;;;;;;;;5072170;28;1981;-67
2023/04/07 01:29:59;;;;;;;;;;;;;;;;;;5053463;28;1218;-67
2023/04/07 01:32:25;;;;;;;;;;;;;;;;;;5071807;28;816;-67
2023/04/07 01:34:51;;;;;;;;;;;;;;;;;;5071671;28;906;-67
2023/04/07 01:37:16;;;;;;;;;;;;;;;;;;5071137;28;884;-67
2023/04/07 01:39:41;;;;;;;;;;;;;;;;;;5053919;28;1398;-67
2023/04/07 01:42:08;;;;;;;;;;;;;;;;;;5071172;28;852;-67
2023/04/07 01:44:33;;;;;;;;;;;;;;;;;;5053416;28;820;-67
2023/04/07 01:46:58;;;;;;;;;;;;;;;;;;5071403;28;891;-67
2023/04/07 01:49:24;;;;;;;;;;;;;;;;;;5052972;28;1894;-67
2023/04/07 01:51:50;;;;;;;;;;;;;;;;;;5053701;28;937;-67
2023/04/07 01:54:16;;;;;;;;;;;;;;;;;;5052678;28;1200;-67
2023/04/07 01:56:43;;;;;;;;;;;;;;;;;;5036887;28;1378;-68
2023/04/07 01:59:08;;;;;;;;;;;;;;;;;;5053121;28;883;-67
2023/04/07 02:01:33;;;;;;;;;;;;;;;;;;5072124;28;900;-67
2023/04/07 02:04:11;;;;;;;;;;;;;;;;;;5057242;28;1211;-68
2023/04/07 02:06:40;;;;;;;;;;;;;;;;;;5057336;28;1196;-67
2023/04/07 02:09:09;;;;;;;;;;;;;;;;;;5056986;28;1898;-67
2023/04/07 02:11:36;;;;;;;;;;;;;;;;;;5075166;28;813;-67
2023/04/07 02:14:02;;;;;;;;;;;;;;;;;;5054229;28;1465;-67
2023/04/07 02:16:30;;;;;;;;;;;;;;;;;;5056532;28;1215;-67
2023/04/07 02:18:56;;;;;;;;;;;;;;;;;;5074954;28;841;-67
2023/04/07 02:21:21;;;;;;;;;;;;;;;;;;5039688;28;1588;-67
2023/04/07 02:23:47;;;;;;;;;;;;;;;;;;5074959;28;821;-67
2023/04/07 02:26:12;;;;;;;;;;;;;;;;;;5074360;28;825;-67
2023/04/07 02:28:37;;;;;;;;;;;;;;;;;;5057136;28;1973;-67
2023/04/07 02:31:04;;;;;;;;;;;;;;;;;;5057030;28;935;-67
2023/04/07 02:33:29;;;;;;;;;;;;;;;;;;5074734;28;894;-67
2023/04/07 02:35:55;;;;;;;;;;;;;;;;;;5075370;28;793;-67
2023/04/07 02:38:20;;;;;;;;;;;;;;;;;;5075409;28;872;-67
2023/04/07 02:40:45;;;;;;;;;;;;;;;;;;5075563;28;908;-67
2023/04/07 02:43:11;;;;;;;;;;;;;;;;;;5075255;28;891;-67
2023/04/07 02:45:36;;;;;;;;;;;;;;;;;;5056466;28;1459;-68
2023/04/07 02:48:01;;;;;;;;;;;;;;;;;;5055995;28;1922;-67
2023/04/07 02:50:27;;;;;;;;;;;;;;;;;;5055461;28;952;-70
2023/04/07 02:52:53;;;;;;;;;;;;;;;;;;5074105;28;812;-70
2023/04/07 02:55:18;;;;;;;;;;;;;;;;;;5038926;28;1333;-70
2023/04/07 02:57:43;;;;;;;;;;;;;;;;;;5073584;28;891;-70
2023/04/07 03:00:09;;;;;;;;;;;;;;;;;;5073255;28;829;-70
2023/04/07 03:02:34;;;;;;;;;;;;;;;;;;5039214;28;940;-70
2023/04/07 03:05:00;;;;;;;;;;;;;;;;;;5073242;28;864;-70
2023/04/07 03:07:26;;;;;;;;;;;;;;;;;;5054687;28;1972;-70
2023/04/07 03:09:51;;;;;;;;;;;;;;;;;;5055033;28;1224;-70
2023/04/07 03:12:16;;;;;;;;;;;;;;;;;;5054603;28;711;-70
2023/04/07 03:14:41;;;;;;;;;;;;;;;;;;5050613;28;1347;-70
2023/04/07 03:17:07;;;;;;;;;;;;;;;;;;5053852;28;829;-70
2023/04/07 03:19:32;;;;;;;;;;;;;;;;;;5053712;28;987;-70
2023/04/07 03:21:57;;;;;;;;;;;;;;;;;;5053808;28;836;-70
2023/04/07 03:24:22;;;;;;;;;;;;;;;;;;5035165;28;1228;-70
2023/04/07 03:26:48;;;;;;;;;;;;;;;;;;5035895;28;1507;-70
2023/04/07 03:29:14;;;;;;;;;;;;;;;;;;5052554;28;1969;-70
2023/04/07 03:31:39;;;;;;;;;;;;;;;;;;5052567;28;1303;-70
2023/04/07 03:34:04;;;;;;;;;;;;;;;;;;5053942;28;875;-70
2023/04/07 03:36:30;;;;;;;;;;;;;;;;;;5053478;28;737;-70
2023/04/07 03:38:56;;;;;;;;;;;;;;;;;;5053202;28;884;-67
2023/04/07 03:41:21;;;;;;;;;;;;;;;;;;5034763;28;1150;-67
2023/04/07 03:43:47;;;;;;;;;;;;;;;;;;5051834;28;1314;-67
2023/04/07 03:46:12;;;;;;;;;;;;;;;;;;5051601;28;1167;-67
2023/04/07 03:48:38;;;;;;;;;;;;;;;;;;5051802;28;1957;-67
2023/04/07 03:51:03;;;;;;;;;;;;;;;;;;5035202;28;1168;-67
2023/04/07 03:53:28;;;;;;;;;;;;;;;;;;5034478;28;1189;-67
2023/04/07 03:55:54;;;;;;;;;;;;;;;;;;5051516;28;1238;-67
2023/04/07 03:58:19;;;;;;;;;;;;;;;;;;5052530;28;904;-67
2023/04/07 04:00:45;;;;;;;;;;;;;;;;;;5051617;28;1080;-67
2023/04/07 04:03:10;;;;;;;;;;;;;;;;;;5051942;28;848;-67
2023/04/07 04:05:36;;;;;;;;;;;;;;;;;;5053034;28;883;-67
2023/04/07 04:08:01;;;;;;;;;;;;;;;;;;5051872;28;1906;-67
2023/04/07 04:10:26;;;;;;;;;;;;;;;;;;5053187;28;876;-67
2023/04/07 04:12:52;;;;;;;;;;;;;;;;;;5053460;28;995;-67
2023/04/07 04:15:17;;;;;;;;;;;;;;;;;;5051333;28;1388;-67
2023/04/07 04:17:43;;;;;;;;;;;;;;;;;;5035445;28;825;-67
2023/04/07 04:20:08;;;;;;;;;;;;;;;;;;5052291;28;971;-67
2023/04/07 04:22:34;;;;;;;;;;;;;;;;;;5053645;28;896;-67
2023/04/07 04:24:59;;;;;;;;;;;;;;;;;;5052451;28;864;-67
2023/04/07 04:27:24;;;;;;;;;;;;;;;;;;5067091;28;1969;-67
2023/04/07 04:29:50;;;;;;;;;;;;;;;;;;5072862;28;1175;-67
2023/04/07 04:32:16;;;;;;;;;;;;;;;;;;5094672;28;1116;-67
2023/04/07 04:34:42;;;;;;;;;;;;;;;;;;5087122;28;1132;-66
2023/04/07 04:37:07;;;;;;;;;;;;;;;;;;5087359;28;1235;-67
2023/04/07 04:39:33;;;;;;;;;;;;;;;;;;5076698;28;1123;-68
2023/04/07 04:41:58;;;;;;;;;;;;;;;;;;5073322;28;1144;-66
2023/04/07 04:44:23;;;;;;;;;;;;;;;;;;5068464;28;1337;-66
2023/04/07 04:46:49;;;;;;;;;;;;;;;;;;5071496;28;1235;-66
2023/04/07 04:49:15;;;;;;;;;;;;;;;;;;5070712;28;1906;-66
2023/04/07 04:51:40;;;;;;;;;;;;;;;;;;5054580;28;1478;-66
2023/04/07 04:54:06;;;;;;;;;;;;;;;;;;5069653;28;1246;-66
2023/04/07 04:56:31;;;;;;;;;;;;;;;;;;5068986;28;1197;-66
2023/04/07 04:58:56;;;;;;;;;;;;;;;;;;5051663;28;1341;-66
2023/04/07 05:01:22;;;;;;;;;;;;;;;;;;5069357;28;1196;-66
2023/04/07 05:03:47;;;;;;;;;;;;;;;;;;5054177;28;1216;-66
2023/04/07 05:06:13;;;;;;;;;;;;;;;;;;5070193;28;1145;-66
2023/04/07 05:08:38;;;;;;;;;;;;;;;;;;5070212;28;1906;-66
2023/04/07 05:11:03;;;;;;;;;;;;;;;;;;5082999;28;1148;-66
2023/04/07 05:13:29;;;;;;;;;;;;;;;;;;5098844;28;1167;-66
2023/04/07 05:15:55;;;;;;;;;;;;;;;;;;5070499;28;1319;-66
2023/04/07 05:18:20;;;;;;;;;;;;;;;;;;5071920;28;817;-66
2023/04/07 05:20:47;;;;;;;;;;;;;;;;;;5071528;28;864;-66
2023/04/07 05:23:12;;;;;;;;;;;;;;;;;;5071644;28;820;-66
2023/04/07 05:25:38;;;;;;;;;;;;;;;;;;5072305;28;891;-65
2023/04/07 05:28:03;;;;;;;;;;;;;;;;;;5036985;28;1894;-65
2023/04/07 05:30:28;;;;;;;;;;;;;;;;;;5053551;28;1342;-66
2023/04/07 05:32:54;;;;;;;;;;;;;;;;;;5054011;28;1182;-66
2023/04/07 05:35:19;;;;;;;;;;;;;;;;;;5037112;28;1341;-66
2023/04/07 05:37:45;;;;;;;;;;;;;;;;;;5056460;28;1228;-66
2023/04/07 05:40:10;;;;;;;;;;;;;;;;;;5076401;28;801;-66
2023/04/07 05:42:36;;;;;;;;;;;;;;;;;;5076129;28;884;-66
2023/04/07 05:45:01;;;;;;;;;;;;;;;;;;5058475;28;785;-69
2023/04/07 05:47:26;;;;;;;;;;;;;;;;;;5057656;28;1910;-71
2023/04/07 05:49:51;;;;;;;;;;;;;;;;;;5057884;28;876;-71
2023/04/07 05:52:17;;;;;;;;;;;;;;;;;;5075368;28;935;-70
2023/04/07 05:54:42;;;;;;;;;;;;;;;;;;5075574;28;885;-70
2023/04/07 05:57:08;;;;;;;;;;;;;;;;;;5058418;28;1298;-70
2023/04/07 05:59:33;;;;;;;;;;;;;;;;;;5075357;28;896;-71
2023/04/07 06:01:59;;;;;;;;;;;;;;;;;;5057805;28;1245;-70
2023/04/07 06:04:24;;;;;;;;;;;;;;;;;;5076106;28;939;-71
2023/04/07 06:06:51;;;;;;;;;;;;;;;;;;5057729;28;892;-71
2023/04/07 06:09:16;;;;;;;;;;;;;;;;;;5075886;28;1965;-71
2023/04/07 06:11:42;;;;;;;;;;;;;;;;;;5058150;28;809;-71
2023/04/07 06:14:08;;;;;;;;;;;;;;;;;;5057895;28;1097;-71
2023/04/07 06:16:33;;;;;;;;;;;;;;;;;;5076604;28;832;-70
2023/04/07 06:18:58;;;;;;;;;;;;;;;;;;5077010;28;868;-70
2023/04/07 06:21:26;;;;;;;;;;;;;;;;;;5075386;28;864;-71
2023/04/07 06:23:51;;;;;;;;;;;;;;;;;;5057068;28;1343;-71
2023/04/07 06:26:16;;;;;;;;;;;;;;;;;;5057124;28;1179;-71
2023/04/07 06:28:41;;;;;;;;;;;;;;;;;;5075202;28;1934;-71
2023/04/07 06:31:07;;;;;;;;;;;;;;;;;;5056568;28;987;-72
2023/04/07 06:33:33;;;;;;;;;;;;;;;;;;5056228;28;1356;-71
2023/04/07 06:35:58;;;;;;;;;;;;;;;;;;5040363;28;1224;-71
2023/04/07 06:38:23;;;;;;;;;;;;;;;;;;5074597;28;896;-71
2023/04/07 06:40:50;;;;;;;;;;;;;;;;;;5073139;28;1301;-71
2023/04/07 06:43:15;;;;;;;;;;;;;;;;;;5074121;28;827;-72
2023/04/07 06:45:40;;;;;;;;;;;;;;;;;;5056217;28;1207;-71
2023/04/07 06:48:06;;;;;;;;;;;;;;;;;;5056094;28;1953;-72
2023/04/07 06:50:31;;;;;;;;;;;;;;;;;;5056190;28;880;-71
2023/04/07 06:52:56;;;;;;;;;;;;;;;;;;5074106;28;897;-71
2023/04/07 06:55:22;;;;;;;;;;;;;;;;;;5056006;28;1180;-71
2023/04/07 06:57:47;;;;;;;;;;;;;;;;;;5056267;28;1429;-71
2023/04/07 07:00:13;;;;;;;;;;;;;;;;;;5074361;28;955;-72
2023/04/07 07:02:39;;;;;;;;;;;;;;;;;;5056778;28;1204;-71
2023/04/07 07:05:04;;;;;;;;;;;;;;;;;;5056350;28;1164;-71
2023/04/07 07:07:30;;;;;;;;;;;;;;;;;;5074394;28;1898;-71
2023/04/07 07:09:55;;;;;;;;;;;;;;;;;;5056736;28;836;-71
2023/04/07 07:12:21;;;;;;;;;;;;;;;;;;5056785;28;993;-71
2023/04/07 07:14:47;;;;;;;;;;;;;;;;;;5047286;28;1191;-71
2023/04/07 07:17:12;;;;;;;;;;;;;;;;;;5075842;28;867;-72
2023/04/07 07:19:38;;;;;;;;;;;;;;;;;;5075347;28;1325;-72
2023/04/07 07:22:03;;;;;;;;;;;;;;;;;;5094092;28;840;-71
2023/04/07 07:24:29;;;;;;;;;;;;;;;;;;5093695;28;821;-71
2023/04/07 07:26:56;;;;;;;;;;;;;;;;;;5094122;28;895;-72
2023/04/07 07:29:21;;;;;;;;;;;;;;;;;;5093798;28;1986;-72
2023/04/07 07:31:46;;;;;;;;;;;;;;;;;;5059226;28;1240;-72
2023/04/07 07:34:11;;;;;;;;;;;;;;;;;;5094173;28;843;-72
2023/04/07 07:36:37;;;;;;;;;;;;;;;;;;5059242;28;1184;-71
2023/04/07 07:39:02;;;;;;;;;;;;;;;;;;5075893;28;861;-71
2023/04/07 07:41:27;;;;;;;;;;;;;;;;;;5076202;28;868;-71
2023/04/07 07:43:53;;;;;;;;;;;;;;;;;;5059602;28;829;-72
2023/04/07 07:46:18;;;;;;;;;;;;;;;;;;5075763;28;832;-72
2023/04/07 07:48:45;;;;;;;;;;;;;;;;;;5075547;28;1878;-72
2023/04/07 07:51:10;;;;;;;;;;;;;;;;;;5093966;28;899;-72
2023/04/07 07:53:36;;;;;;;;;;;;;;;;;;5075711;28;1307;-72
2023/04/07 07:56:01;;;;;;;;;;;;;;;;;;5075456;28;1188;-72
2023/04/07 07:58:26;;;;;;;;;;;;;;;;;;5093703;28;825;-72
2023/04/07 08:00:52;;;;;;;;;;;;;;;;;;5092677;28;781;-72
2023/04/07 08:03:18;;;;;;;;;;;;;;;;;;5075156;28;900;-66
2023/04/07 08:05:44;;;;;;;;;;;;;;;;;;5092567;28;844;-66
2023/04/07 08:08:09;;;;;;;;;;;;;;;;;;5074949;28;1898;-66
2023/04/07 08:10:35;;;;;;;;;;;;;;;;;;5074468;28;1441;-66
2023/04/07 08:13:00;;;;;;;;;;;;;;;;;;5093022;28;828;-68
2023/04/07 08:15:25;;;;;;;;;;;;;;;;;;5057977;28;1272;-66
2023/04/07 08:17:51;;;;;;;;;;;;;;;;;;5092033;28;809;-66
2023/04/07 08:20:16;;;;;;;;;;;;;;;;;;5074220;28;864;-66
2023/04/07 08:22:41;;;;;;;;;;;;;;;;;;5074701;28;1449;-66
2023/04/07 08:25:07;;;;;;;;;;;;;;;;;;5074029;28;1129;-66
2023/04/07 08:27:33;;;;;;;;;;;;;;;;;;5073852;28;1918;-66
2023/04/07 08:29:59;;;;;;;;;;;;;;;;;;5057518;28;1216;-67
2023/04/07 08:32:25;;;;;;;;;;;;;;;;;;5074567;28;761;-66
2023/04/07 08:34:50;;;;;;;;;;;;;;;;;;5092939;28;867;-67
2023/04/07 08:37:15;;;;;;;;;;;;;;;;;;5092435;28;891;-66
2023/04/07 08:39:41;;;;;;;;;;;;;;;;;;5075064;28;900;-66
2023/04/07 08:42:07;;;;;;;;;;;;;;;;;;5092635;28;860;-66
2023/04/07 08:44:35;;;;;;;;;;;;;;;;;;5074449;28;1333;-65
2023/04/07 08:47:04;;;;;;;;;;;;;;;;;;5092394;28;856;-66
2023/04/07 08:49:31;;;;;;;;;;;;;;;;;;5074224;28;1901;-65
2023/04/07 08:51:58;;;;;;;;;;;;;;;;;;5091972;28;903;-66
2023/04/07 08:54:24;;;;;;;;;;;;;;;;;;5090724;28;895;-66
2023/04/07 08:56:49;;;;;;;;;;;;;;;;;;5073733;28;1216;-66
2023/04/07 08:59:17;;;;;;;;;;;;;;;;;;5073404;28;1649;-66
2023/04/07 09:01:42;;;;;;;;;;;;;;;;;;5091953;28;769;-66
2023/04/07 09:04:08;;;;;;;;;;;;;;;;;;5091696;28;963;-66
2023/04/07 09:06:34;;;;;;;;;;;;;;;;;;5073296;28;1224;-66
2023/04/07 09:09:04;;;;;;;;;;;;;;;;;;5092000;28;1909;-66
2023/04/07 09:11:33;;;;;;;;;;;;;;;;;;5073584;28;1380;-66
2023/04/07 09:14:00;;;;;;;;;;;;;;;;;;5090815;28;1165;-66
2023/04/07 09:16:27;;;;;;;;;;;;;;;;;;5072182;28;852;-72
2023/04/07 09:18:52;;;;;;;;;;;;;;;;;;5054170;28;1200;-72
2023/04/07 09:21:18;;;;;;;;;;;;;;;;;;5037185;28;1303;-72
2023/04/07 09:23:43;;;;;;;;;;;;;;;;;;5072790;28;840;-72
2023/04/07 09:26:24;;;;;;;;;;;;;;;;;;5053592;28;1321;-72
2023/04/07 09:28:52;;;;;;;;;;;;;;;;;;5052645;28;1914;-72
2023/04/07 09:31:19;;;;;;;;;;;;;;;;;;5054124;28;1389;-72
2023/04/07 09:33:45;;;;;;;;;;;;;;;;;;5054077;28;1503;-72
2023/04/07 09:36:11;;;;;;;;;;;;;;;;;;5054860;28;1256;-72
2023/04/07 09:38:37;;;;;;;;;;;;;;;;;;5071857;28;852;-72
2023/04/07 09:41:07;;;;;;;;;;;;;;;;;;5071931;28;797;-72
2023/04/07 09:43:34;;;;;;;;;;;;;;;;;;5071497;28;825;-72
2023/04/07 09:46:07;;;;;;;;;;;;;;;;;;5053562;28;1244;-72
2023/04/07 09:48:33;;;;;;;;;;;;;;;;;;5053886;28;1890;-72
2023/04/07 09:51:09;;;;;;;;;;;;;;;;;;5053514;28;1349;-72
2023/04/07 09:53:48;;;;;;;;;;;;;;;;;;5053358;28;1227;-72
2023/04/07 09:56:15;;;;;;;;;;;;;;;;;;5071492;28;1013;-72
2023/04/07 09:58:42;;;;;;;;;;;;;;;;;;5071429;28;766;-72
2023/04/07 10:01:11;;;;;;;;;;;;;;;;;;5071424;28;967;-72
2023/04/07 10:03:36;;;;;;;;;;;;;;;;;;5071716;28;939;-72
2023/04/07 10:06:02;;;;;;;;;;;;;;;;;;5053725;28;1335;-72
2023/04/07 10:08:30;;;;;;;;;;;;;;;;;;5071451;28;1914;-73
2023/04/07 10:10:56;;;;;;;;;;;;;;;;;;5053564;28;1275;-72
2023/04/07 10:13:23;;;;;;;;;;;;;;;;;;5053799;28;1142;-72
2023/04/07 10:15:48;;;;;;;;;;;;;;;;;;5071944;28;1100;-72
2023/04/07 10:18:17;;;;;;;;;;;;;;;;;;5071478;28;810;-72
2023/04/07 10:20:43;;;;;;;;;;;;;;;;;;5071857;28;872;-73
2023/04/07 10:23:20;;;;;;;;;;;;;;;;;;5073114;28;884;-72
2023/04/07 10:25:47;;;;;;;;;;;;;;;;;;5057413;28;1475;-72
2023/04/07 10:28:15;;;;;;;;;;;;;;;;;;5056759;28;1957;-72
2023/04/07 10:30:40;;;;;;;;;;;;;;;;;;5075023;28;944;-72
2023/04/07 10:33:06;;;;;;;;;;;;;;;;;;5074466;28;883;-72
2023/04/07 10:36:01;;;;;;;;;;;;;;;;;;5056711;28;905;-68
2023/04/07 10:38:26;;;;;;;;;;;;;;;;;;5056572;28;1214;-68
2023/04/07 10:40:52;;;;;;;;;;;;;;;;;;5056656;28;904;-67
2023/04/07 10:43:36;;;;;;;;;;;;;;;;;;5039153;28;1342;-67
2023/04/07 10:46:01;;;;;;;;;;;;;;;;;;5074048;28;840;-67
2023/04/07 10:48:27;;;;;;;;;;;;;;;;;;5074164;28;1898;-67
2023/04/07 10:51:06;;;;;;;;;;;;;;;;;;5073016;28;1251;-67
2023/04/07 10:53:32;;;;;;;;;;;;;;;;;;5074508;28;864;-67
2023/04/07 10:55:58;;;;;;;;;;;;;;;;;;5056130;28;1125;-67
2023/04/07 10:58:32;;;;;;;;;;;;;;;;;;5074277;28;844;-67
2023/04/07 11:01:10;;;;;;;;;;;;;;;;;;5055833;28;1346;-68
2023/04/07 11:03:40;;;;;;;;;;;;;;;;;;5074104;28;918;-67
2023/04/07 11:06:10;;;;;;;;;;;;;;;;;;5074456;28;863;-67
2023/04/07 11:08:36;;;;;;;;;;;;;;;;;;5073922;28;1906;-67
2023/04/07 11:11:01;;;;;;;;;;;;;;;;;;5074275;28;911;-67
2023/04/07 11:13:27;;;;;;;;;;;;;;;;;;5074023;28;797;-68
2023/04/07 11:15:53;;;;;;;;;;;;;;;;;;5074033;28;1116;-67
2023/04/07 11:18:19;;;;;;;;;;;;;;;;;;5073648;28;900;-67
2023/04/07 11:20:45;;;;;;;;;;;;;;;;;;5074081;28;845;-68
2023/04/07 11:23:11;;;;;;;;;;;;;;;;;;5074029;28;828;-68
2023/04/07 11:25:36;;;;;;;;;;;;;;;;;;5073356;28;840;-67
2023/04/07 11:28:05;;;;;;;;;;;;;;;;;;5055620;28;1906;-67
2023/04/07 11:30:30;;;;;;;;;;;;;;;;;;5055131;28;865;-67
2023/04/07 11:32:56;;;;;;;;;;;;;;;;;;5071869;28;1278;-67
2023/04/07 11:35:22;;;;;;;;;;;;;;;;;;5054689;28;1303;-67
2023/04/07 11:37:47;;;;;;;;;;;;;;;;;;5074058;28;943;-67
2023/04/07 11:40:15;;;;;;;;;;;;;;;;;;5073604;28;852;-68
2023/04/07 11:42:41;;;;;;;;;;;;;;;;;;5056438;28;1211;-67
2023/04/07 11:45:16;;;;;;;;;;;;;;;;;;5073849;28;877;-69
2023/04/07 11:47:41;;;;;;;;;;;;;;;;;;5074150;28;1963;-67
2023/04/07 11:50:07;;;;;;;;;;;;;;;;;;5055161;28;1119;-67
2023/04/07 11:52:46;;;;;;;;;;;;;;;;;;5073327;28;1110;-72
2023/04/07 11:55:20;;;;;;;;;;;;;;;;;;5056049;28;1124;-72
2023/04/07 11:57:45;;;;;;;;;;;;;;;;;;5056548;28;872;-73
2023/04/07 12:00:12;;;;;;;;;;;;;;;;;;5055667;28;1221;-72
2023/04/07 12:02:37;;;;;;;;;;;;;;;;;;5055339;28;1274;-72
2023/04/07 12:05:03;;;;;;;;;;;;;;;;;;5073461;28;817;-72
2023/04/07 12:07:28;;;;;;;;;;;;;;;;;;5055179;28;1963;-72
2023/04/07 12:09:54;;;;;;;;;;;;;;;;;;5038645;28;1173;-72
2023/04/07 12:12:27;;;;;;;;;;;;;;;;;;5072679;28;856;-72
2023/04/07 12:14:52;;;;;;;;;;;;;;;;;;5063412;28;1193;-72
2023/04/07 12:17:25;;;;;;;;;;;;;;;;;;5093759;28;868;-72
2023/04/07 12:19:51;;;;;;;;;;;;;;;;;;5094002;28;896;-72
2023/04/07 12:22:16;;;;;;;;;;;;;;;;;;5093487;28;904;-73
2023/04/07 12:24:42;;;;;;;;;;;;;;;;;;5093569;28;974;-72
2023/04/07 12:27:08;;;;;;;;;;;;;;;;;;5093576;28;920;-71
2023/04/07 12:29:34;;;;;;;;;;;;;;;;;;5093117;28;1985;-72
2023/04/07 12:31:59;;;;;;;;;;;;;;;;;;5093731;28;1078;-72
2023/04/07 12:34:24;;;;;;;;;;;;;;;;;;5058510;28;1318;-72
2023/04/07 12:36:50;;;;;;;;;;;;;;;;;;5094206;28;841;-73
2023/04/07 12:39:15;;;;;;;;;;;;;;;;;;5093731;28;915;-72
2023/04/07 12:41:41;;;;;;;;;;;;;;;;;;5058916;28;1187;-72
2023/04/07 12:44:06;;;;;;;;;;;;;;;;;;5093636;28;824;-73
2023/04/07 12:46:31;;;;;;;;;;;;;;;;;;5093653;28;930;-72
2023/04/07 12:48:57;;;;;;;;;;;;;;;;;;5075583;28;1899;-72
2023/04/07 12:51:22;;;;;;;;;;;;;;;;;;5093181;28;896;-72
2023/04/07 12:53:47;;;;;;;;;;;;;;;;;;5076623;28;1340;-72
2023/04/07 12:56:13;;;;;;;;;;;;;;;;;;5093649;28;1013;-72
2023/04/07 12:58:41;;;;;;;;;;;;;;;;;;5058236;28;1243;-73
2023/04/07 13:01:07;;;;;;;;;;;;;;;;;;5092995;28;809;-72
2023/04/07 13:03:32;;;;;;;;;;;;;;;;;;5092841;28;914;-72
2023/04/07 13:06:00;;;;;;;;;;;;;;;;;;5092562;28;899;-72
2023/04/07 13:08:26;;;;;;;;;;;;;;;;;;5058066;28;1898;-73
2023/04/07 13:10:51;;;;;;;;;;;;;;;;;;5057925;28;1329;-72
2023/04/07 13:13:16;;;;;;;;;;;;;;;;;;5074615;28;1206;-73
2023/04/07 13:15:45;;;;;;;;;;;;;;;;;;5057384;28;1224;-72
2023/04/07 13:18:10;;;;;;;;;;;;;;;;;;5074547;28;899;-73
2023/04/07 13:20:36;;;;;;;;;;;;;;;;;;5092255;28;1279;-72
2023/04/07 13:23:01;;;;;;;;;;;;;;;;;;5074569;28;1126;-72
2023/04/07 13:25:27;;;;;;;;;;;;;;;;;;5091435;28;977;-72
2023/04/07 13:27:52;;;;;;;;;;;;;;;;;;5092345;28;1914;-72
2023/04/07 13:30:17;;;;;;;;;;;;;;;;;;5056810;28;1244;-72
2023/04/07 13:32:43;;;;;;;;;;;;;;;;;;5073569;28;1149;-72
2023/04/07 13:35:09;;;;;;;;;;;;;;;;;;5073720;28;1219;-72
2023/04/07 13:37:34;;;;;;;;;;;;;;;;;;5091576;28;899;-73
2023/04/07 13:40:00;;;;;;;;;;;;;;;;;;5057243;28;1350;-73
2023/04/07 13:42:25;;;;;;;;;;;;;;;;;;5091079;28;975;-72
2023/04/07 13:44:51;;;;;;;;;;;;;;;;;;5056861;28;1101;-72
2023/04/07 13:47:19;;;;;;;;;;;;;;;;;;5073509;28;1236;-72
2023/04/07 13:49:45;;;;;;;;;;;;;;;;;;5073065;28;1914;-72
2023/04/07 13:52:10;;;;;;;;;;;;;;;;;;5091920;28;984;-72
2023/04/07 13:54:37;;;;;;;;;;;;;;;;;;5073415;28;1379;-72
2023/04/07 13:57:02;;;;;;;;;;;;;;;;;;5092106;28;825;-73
2023/04/07 13:59:27;;;;;;;;;;;;;;;;;;5095147;28;892;-73
2023/04/07 14:01:52;;;;;;;;;;;;;;;;;;5061253;28;1220;-73
2023/04/07 14:04:18;;;;;;;;;;;;;;;;;;5095517;28;971;-72
2023/04/07 14:06:43;;;;;;;;;;;;;;;;;;5095238;28;892;-73
2023/04/07 14:09:08;;;;;;;;;;;;;;;;;;5095851;28;1965;-73
2023/04/07 14:11:33;;;;;;;;;;;;;;;;;;5077182;28;856;-72
2023/04/07 14:13:59;;;;;;;;;;;;;;;;;;5077497;28;1276;-73
2023/04/07 14:16:24;;;;;;;;;;;;;;;;;;5059993;28;1331;-73
2023/04/07 14:18:50;;;;;;;;;;;;;;;;;;5094871;28;923;-73
2023/04/07 14:21:15;;;;;;;;;;;;;;;;;;5076828;28;1256;-72
2023/04/07 14:23:41;;;;;;;;;;;;;;;;;;5077165;28;1208;-73
2023/04/07 14:26:10;;;;;;;;;;;;;;;;;;5078029;28;1339;-73
2023/04/07 14:28:36;;;;;;;;;;;;;;;;;;5076963;28;1978;-72
2023/04/07 14:31:01;;;;;;;;;;;;;;;;;;5077895;28;876;-72
2023/04/07 14:33:26;;;;;;;;;;;;;;;;;;5077400;28;1220;-72
2023/04/07 14:35:52;;;;;;;;;;;;;;;;;;5095569;28;829;-72
2023/04/07 14:38:17;;;;;;;;;;;;;;;;;;5076446;28;1226;-73
2023/04/07 14:40:44;;;;;;;;;;;;;;;;;;5077376;28;872;-73
2023/04/07 14:43:09;;;;;;;;;;;;;;;;;;5077147;28;1311;-72
2023/04/07 14:45:34;;;;;;;;;;;;;;;;;;5076153;28;1231;-73
2023/04/07 14:48:00;;;;;;;;;;;;;;;;;;5094822;28;1922;-72
2023/04/07 14:50:26;;;;;;;;;;;;;;;;;;5076001;28;1207;-68
2023/04/07 14:52:52;;;;;;;;;;;;;;;;;;5094437;28;848;-67
2023/04/07 14:55:17;;;;;;;;;;;;;;;;;;5094088;28;897;-68
2023/04/07 14:57:42;;;;;;;;;;;;;;;;;;5059075;28;1307;-67
2023/04/07 15:00:08;;;;;;;;;;;;;;;;;;5076408;28;883;-67
2023/04/07 15:02:34;;;;;;;;;;;;;;;;;;5075425;28;1490;-67
2023/04/07 15:04:59;;;;;;;;;;;;;;;;;;5075933;28;1526;-67
2023/04/07 15:07:25;;;;;;;;;;;;;;;;;;5075457;28;986;-68
2023/04/07 15:09:50;;;;;;;;;;;;;;;;;;5092990;28;1965;-67
2023/04/07 15:12:16;;;;;;;;;;;;;;;;;;5058441;28;1444;-67
2023/04/07 15:14:43;;;;;;;;;;;;;;;;;;5090167;28;1183;-67
2023/04/07 15:17:08;;;;;;;;;;;;;;;;;;5053086;28;1392;-67
2023/04/07 15:19:34;;;;;;;;;;;;;;;;;;5037278;28;1233;-66
2023/04/07 15:21:59;;;;;;;;;;;;;;;;;;5036947;28;1295;-67
2023/04/07 15:24:24;;;;;;;;;;;;;;;;;;5018835;28;1153;-67
2023/04/07 15:26:49;;;;;;;;;;;;;;;;;;5052101;28;1284;-67
2023/04/07 15:29:15;;;;;;;;;;;;;;;;;;5035638;28;1967;-67
2023/04/07 15:31:40;;;;;;;;;;;;;;;;;;5035753;28;1380;-72
2023/04/07 15:34:05;;;;;;;;;;;;;;;;;;5035732;28;1074;-73
2023/04/07 15:36:31;;;;;;;;;;;;;;;;;;5018716;28;1007;-72
2023/04/07 15:38:56;;;;;;;;;;;;;;;;;;5019099;28;1186;-72
2023/04/07 15:41:22;;;;;;;;;;;;;;;;;;5053449;28;790;-72
2023/04/07 15:43:47;;;;;;;;;;;;;;;;;;5035711;28;904;-72
2023/04/07 15:46:12;;;;;;;;;;;;;;;;;;5034994;28;1201;-72
2023/04/07 15:48:40;;;;;;;;;;;;;;;;;;5017851;28;1898;-72
2023/04/07 15:51:05;;;;;;;;;;;;;;;;;;5036443;28;1033;-72
2023/04/07 15:53:31;;;;;;;;;;;;;;;;;;5036227;28;1287;-72
2023/04/07 15:55:56;;;;;;;;;;;;;;;;;;5054428;28;903;-72
2023/04/07 15:58:21;;;;;;;;;;;;;;;;;;5036144;28;1327;-71
2023/04/07 16:00:47;;;;;;;;;;;;;;;;;;5036671;28;1333;-71
2023/04/07 16:03:12;;;;;;;;;;;;;;;;;;5020238;28;805;-71
2023/04/07 16:05:38;;;;;;;;;;;;;;;;;;5036400;28;904;-71
2023/04/07 16:08:03;;;;;;;;;;;;;;;;;;5018539;28;1976;-71
2023/04/07 16:10:28;;;;;;;;;;;;;;;;;;5039230;28;1363;-71
2023/04/07 16:12:54;;;;;;;;;;;;;;;;;;5051441;28;1225;-71
2023/04/07 16:15:19;;;;;;;;;;;;;;;;;;5026981;28;1280;-71
2023/04/07 16:17:47;;;;;;;;;;;;;;;;;;5073216;28;840;-71
2023/04/07 16:20:15;;;;;;;;;;;;;;;;;;5055132;28;1302;-71
2023/04/07 16:22:42;;;;;;;;;;;;;;;;;;5055134;28;1400;-71
2023/04/07 16:25:08;;;;;;;;;;;;;;;;;;5055406;28;1141;-71
2023/04/07 16:27:33;;;;;;;;;;;;;;;;;;5072660;28;841;-71
2023/04/07 16:29:58;;;;;;;;;;;;;;;;;;5072873;28;1910;-71
2023/04/07 16:32:24;;;;;;;;;;;;;;;;;;5054099;28;1350;-71
2023/04/07 16:34:49;;;;;;;;;;;;;;;;;;5038410;28;1349;-72
2023/04/07 16:37:15;;;;;;;;;;;;;;;;;;5054791;28;1342;-71
2023/04/07 16:39:40;;;;;;;;;;;;;;;;;;5054655;28;736;-71
2023/04/07 16:42:05;;;;;;;;;;;;;;;;;;5037859;28;1318;-71
2023/04/07 16:44:31;;;;;;;;;;;;;;;;;;5037513;28;819;-72
2023/04/07 16:46:57;;;;;;;;;;;;;;;;;;5038101;28;1236;-71
2023/04/07 16:49:22;;;;;;;;;;;;;;;;;;5072517;28;1947;-71
2023/04/07 16:51:47;;;;;;;;;;;;;;;;;;5036394;28;1094;-71
2023/04/07 16:54:12;;;;;;;;;;;;;;;;;;5053886;28;900;-71
2023/04/07 16:56:38;;;;;;;;;;;;;;;;;;5072265;28;1109;-72
2023/04/07 16:59:03;;;;;;;;;;;;;;;;;;5054134;28;1361;-71
2023/04/07 17:01:28;;;;;;;;;;;;;;;;;;5053661;28;1089;-70
2023/04/07 17:03:54;;;;;;;;;;;;;;;;;;5054083;28;836;-71